sensor_id;sensor_type;location;lat;lon;timestamp;pressure;altitude;pressure_sealevel;temperature;humidity
12868;BME280;33517;49.866;8.320;2023-03-01T00:02:07;101638.66;;;0.13;65.48
12868;BME280;33517;49.866;8.320;2023-03-01T00:04:59;101641.44;;;0.09;65.64
12868;BME280;33517;49.866;8.320;2023-03-01T00:07:53;101639.81;;;0.06;65.63
12868;BME280;33517;49.866;8.320;2023-03-01T00:10:45;101641.78;;;0.01;65.71
12868;BME280;33517;49.866;8.320;2023-03-01T00:13:37;101639.34;;;-0.02;66.38
12868;BME280;33517;49.866;8.320;2023-03-01T00:16:31;101647.03;;;-0.01;65.83
12868;BME280;33517;49.866;8.320;2023-03-01T00:19:24;101640.13;;;0.00;65.87
12868;BME280;33517;49.866;8.320;2023-03-01T00:22:16;101637.53;;;0.00;65.79
12868;BME280;33517;49.866;8.320;2023-03-01T00:25:09;101642.63;;;0.02;66.15
12868;BME280;33517;49.866;8.320;2023-03-01T00:28:01;101632.28;;;0.02;65.87
12868;BME280;33517;49.866;8.320;2023-03-01T00:30:53;101632.41;;;-0.02;66.85
12868;BME280;33517;49.866;8.320;2023-03-01T00:33:45;101640.13;;;0.00;66.77
12868;BME280;33517;49.866;8.320;2023-03-01T00:36:37;101632.47;;;-0.03;67.16
12868;BME280;33517;49.866;8.320;2023-03-01T00:39:29;101632.41;;;-0.02;67.25
12868;BME280;33517;49.866;8.320;2023-03-01T00:42:23;101631.50;;;-0.01;66.96
12868;BME280;33517;49.866;8.320;2023-03-01T00:45:14;101620.25;;;0.00;66.98
12868;BME280;33517;49.866;8.320;2023-03-01T00:48:06;101617.72;;;-0.01;67.56
12868;BME280;33517;49.866;8.320;2023-03-01T00:51:04;101619.69;;;-0.06;67.00
12868;BME280;33517;49.866;8.320;2023-03-01T00:53:59;101622.41;;;-0.09;67.71
12868;BME280;33517;49.866;8.320;2023-03-01T00:56:51;101620.72;;;-0.10;67.04
12868;BME280;33517;49.866;8.320;2023-03-01T00:59:44;101617.44;;;-0.14;66.92
12868;BME280;33517;49.866;8.320;2023-03-01T01:02:36;101608.84;;;-0.14;67.70
12868;BME280;33517;49.866;8.320;2023-03-01T01:05:28;101612.41;;;-0.17;67.54
12868;BME280;33517;49.866;8.320;2023-03-01T01:08:21;101610.72;;;-0.18;67.23
12868;BME280;33517;49.866;8.320;2023-03-01T01:11:13;101602.19;;;-0.20;67.46
12868;BME280;33517;49.866;8.320;2023-03-01T01:14:05;101597.78;;;-0.18;67.23
12868;BME280;33517;49.866;8.320;2023-03-01T01:16:58;101584.09;;;-0.20;67.32
12868;BME280;33517;49.866;8.320;2023-03-01T01:19:50;101575.63;;;-0.23;67.00
12868;BME280;33517;49.866;8.320;2023-03-01T01:22:42;101578.34;;;-0.26;67.52
12868;BME280;33517;49.866;8.320;2023-03-01T01:25:35;101565.41;;;-0.26;66.88
12868;BME280;33517;49.866;8.320;2023-03-01T01:28:27;101563.66;;;-0.26;67.09
12868;BME280;33517;49.866;8.320;2023-03-01T01:31:19;101567.09;;;-0.25;67.22
12868;BME280;33517;49.866;8.320;2023-03-01T01:34:15;101557.38;;;-0.20;67.59
12868;BME280;33517;49.866;8.320;2023-03-01T01:37:07;101559.53;;;-0.11;67.83
12868;BME280;33517;49.866;8.320;2023-03-01T01:39:59;101548.94;;;-0.05;67.71
12868;BME280;33517;49.866;8.320;2023-03-01T01:42:51;101558.16;;;0.00;67.95
12868;BME280;33517;49.866;8.320;2023-03-01T01:45:43;101554.44;;;0.06;68.09
12868;BME280;33517;49.866;8.320;2023-03-01T01:48:40;101552.44;;;0.13;68.40
12868;BME280;33517;49.866;8.320;2023-03-01T01:51:39;101541.72;;;0.20;68.02
12868;BME280;33517;49.866;8.320;2023-03-01T01:54:38;101546.59;;;0.26;67.82
12868;BME280;33517;49.866;8.320;2023-03-01T01:57:34;101547.28;;;0.30;67.42
12868;BME280;33517;49.866;8.320;2023-03-01T02:00:29;101540.31;;;0.32;68.12
12868;BME280;33517;49.866;8.320;2023-03-01T02:03:24;101536.59;;;0.37;68.23
12868;BME280;33517;49.866;8.320;2023-03-01T02:06:24;101533.09;;;0.38;68.13
12868;BME280;33517;49.866;8.320;2023-03-01T02:09:21;101524.31;;;0.41;67.86
12868;BME280;33517;49.866;8.320;2023-03-01T02:12:17;101526.63;;;0.47;68.09
12868;BME280;33517;49.866;8.320;2023-03-01T02:15:10;101535.00;;;0.52;68.74
12868;BME280;33517;49.866;8.320;2023-03-01T02:18:03;101532.34;;;0.53;68.46
12868;BME280;33517;49.866;8.320;2023-03-01T02:21:05;101538.31;;;0.55;68.59
12868;BME280;33517;49.866;8.320;2023-03-01T02:24:05;101532.13;;;0.58;68.45
12868;BME280;33517;49.866;8.320;2023-03-01T02:27:00;101539.06;;;0.57;68.67
12868;BME280;33517;49.866;8.320;2023-03-01T02:29:53;101539.84;;;0.59;69.08
12868;BME280;33517;49.866;8.320;2023-03-01T02:32:46;101526.94;;;0.58;69.07
12868;BME280;33517;49.866;8.320;2023-03-01T02:35:39;101526.16;;;0.56;69.21
12868;BME280;33517;49.866;8.320;2023-03-01T02:38:32;101524.50;;;0.55;68.68
12868;BME280;33517;49.866;8.320;2023-03-01T02:41:25;101520.31;;;0.52;69.35
12868;BME280;33517;49.866;8.320;2023-03-01T02:44:19;101513.38;;;0.53;69.20
12868;BME280;33517;49.866;8.320;2023-03-01T02:47:12;101506.50;;;0.52;68.83
12868;BME280;33517;49.866;8.320;2023-03-01T02:50:12;101510.94;;;0.50;68.59
12868;BME280;33517;49.866;8.320;2023-03-01T02:53:10;101506.00;;;0.45;68.38
12868;BME280;33517;49.866;8.320;2023-03-01T02:56:04;101494.25;;;0.38;68.87
12868;BME280;33517;49.866;8.320;2023-03-01T02:58:56;101495.16;;;0.37;68.84
12868;BME280;33517;49.866;8.320;2023-03-01T03:01:51;101499.50;;;0.37;68.18
12868;BME280;33517;49.866;8.320;2023-03-01T03:04:44;101501.25;;;0.36;68.63
12868;BME280;33517;49.866;8.320;2023-03-01T03:07:37;101500.41;;;0.36;68.28
12868;BME280;33517;49.866;8.320;2023-03-01T03:10:33;101489.28;;;0.34;68.23
12868;BME280;33517;49.866;8.320;2023-03-01T03:13:25;101490.34;;;0.30;68.01
12868;BME280;33517;49.866;8.320;2023-03-01T03:16:19;101478.38;;;0.27;67.92
12868;BME280;33517;49.866;8.320;2023-03-01T03:19:11;101477.69;;;0.24;67.76
12868;BME280;33517;49.866;8.320;2023-03-01T03:22:05;101475.28;;;0.21;67.63
12868;BME280;33517;49.866;8.320;2023-03-01T03:24:59;101471.16;;;0.17;68.00
12868;BME280;33517;49.866;8.320;2023-03-01T03:27:52;101468.69;;;0.14;67.24
12868;BME280;33517;49.866;8.320;2023-03-01T03:30:47;101472.41;;;0.08;67.47
12868;BME280;33517;49.866;8.320;2023-03-01T03:33:40;101469.28;;;0.02;67.79
12868;BME280;33517;49.866;8.320;2023-03-01T03:36:31;101473.81;;;-0.04;67.86
12868;BME280;33517;49.866;8.320;2023-03-01T03:39:25;101461.91;;;-0.06;67.75
12868;BME280;33517;49.866;8.320;2023-03-01T03:42:17;101465.47;;;-0.09;68.16
12868;BME280;33517;49.866;8.320;2023-03-01T03:45:09;101465.38;;;-0.07;68.12
12868;BME280;33517;49.866;8.320;2023-03-01T03:48:01;101462.59;;;-0.03;67.78
12868;BME280;33517;49.866;8.320;2023-03-01T03:50:55;101457.19;;;0.02;67.43
12868;BME280;33517;49.866;8.320;2023-03-01T03:53:47;101442.22;;;0.09;68.29
12868;BME280;33517;49.866;8.320;2023-03-01T03:56:41;101437.59;;;0.15;67.52
12868;BME280;33517;49.866;8.320;2023-03-01T03:59:34;101439.94;;;0.20;67.90
12868;BME280;33517;49.866;8.320;2023-03-01T04:02:26;101438.88;;;0.24;67.64
12868;BME280;33517;49.866;8.320;2023-03-01T04:05:18;101434.34;;;0.29;67.77
12868;BME280;33517;49.866;8.320;2023-03-01T04:08:10;101435.84;;;0.33;68.14
12868;BME280;33517;49.866;8.320;2023-03-01T04:11:04;101440.03;;;0.35;67.82
12868;BME280;33517;49.866;8.320;2023-03-01T04:14:12;101433.88;;;0.38;67.20
12868;BME280;33517;49.866;8.320;2023-03-01T04:17:04;101438.91;;;0.41;67.47
12868;BME280;33517;49.866;8.320;2023-03-01T04:19:55;101440.50;;;0.43;67.81
12868;BME280;33517;49.866;8.320;2023-03-01T04:22:47;101448.19;;;0.45;67.04
12868;BME280;33517;49.866;8.320;2023-03-01T04:25:40;101455.88;;;0.46;67.11
12868;BME280;33517;49.866;8.320;2023-03-01T04:28:35;101454.13;;;0.47;67.32
12868;BME280;33517;49.866;8.320;2023-03-01T04:31:28;101455.81;;;0.48;67.84
12868;BME280;33517;49.866;8.320;2023-03-01T04:34:20;101450.66;;;0.48;67.85
12868;BME280;33517;49.866;8.320;2023-03-01T04:37:12;101452.59;;;0.43;67.56
12868;BME280;33517;49.866;8.320;2023-03-01T04:40:07;101450.94;;;0.42;68.10
12868;BME280;33517;49.866;8.320;2023-03-01T04:43:06;101452.00;;;0.38;67.59
12868;BME280;33517;49.866;8.320;2023-03-01T04:46:00;101440.72;;;0.39;68.02
12868;BME280;33517;49.866;8.320;2023-03-01T04:48:55;101445.91;;;0.39;68.60
12868;BME280;33517;49.866;8.320;2023-03-01T04:51:47;101440.59;;;0.42;68.12
12868;BME280;33517;49.866;8.320;2023-03-01T04:54:39;101441.47;;;0.41;67.61
12868;BME280;33517;49.866;8.320;2023-03-01T04:57:31;101444.06;;;0.41;67.62
12868;BME280;33517;49.866;8.320;2023-03-01T05:00:23;101442.31;;;0.41;67.69
12868;BME280;33517;49.866;8.320;2023-03-01T05:03:15;101437.16;;;0.41;68.15
12868;BME280;33517;49.866;8.320;2023-03-01T05:06:10;101435.41;;;0.42;68.30
12868;BME280;33517;49.866;8.320;2023-03-01T05:09:02;101434.56;;;0.41;68.54
12868;BME280;33517;49.866;8.320;2023-03-01T05:11:54;101438.13;;;0.39;68.77
12868;BME280;33517;49.866;8.320;2023-03-01T05:14:46;101440.72;;;0.39;68.88
12868;BME280;33517;49.866;8.320;2023-03-01T05:17:38;101440.72;;;0.39;68.30
12868;BME280;33517;49.866;8.320;2023-03-01T05:20:30;101442.41;;;0.40;67.69
12868;BME280;33517;49.866;8.320;2023-03-01T05:23:23;101441.66;;;0.38;68.31
12868;BME280;33517;49.866;8.320;2023-03-01T05:26:16;101438.00;;;0.42;68.36
12868;BME280;33517;49.866;8.320;2023-03-01T05:29:08;101440.50;;;0.43;68.05
12868;BME280;33517;49.866;8.320;2023-03-01T05:32:01;101434.56;;;0.41;68.15
12868;BME280;33517;49.866;8.320;2023-03-01T05:34:54;101429.22;;;0.44;67.83
12868;BME280;33517;49.866;8.320;2023-03-01T05:37:47;101424.88;;;0.45;68.16
12868;BME280;33517;49.866;8.320;2023-03-01T05:40:41;101415.28;;;0.47;67.69
12868;BME280;33517;49.866;8.320;2023-03-01T05:43:34;101425.94;;;0.41;67.97
12868;BME280;33517;49.866;8.320;2023-03-01T05:46:25;101435.31;;;0.43;68.79
12868;BME280;33517;49.866;8.320;2023-03-01T05:49:17;101420.78;;;0.41;68.82
12868;BME280;33517;49.866;8.320;2023-03-01T05:52:09;101422.50;;;0.40;68.78
12868;BME280;33517;49.866;8.320;2023-03-01T05:55:01;101428.53;;;0.41;69.39
12868;BME280;33517;49.866;8.320;2023-03-01T05:57:54;101421.53;;;0.43;69.90
12868;BME280;33517;49.866;8.320;2023-03-01T06:00:48;101426.59;;;0.46;69.27
12868;BME280;33517;49.866;8.320;2023-03-01T06:03:40;101423.81;;;0.49;68.83
12868;BME280;33517;49.866;8.320;2023-03-01T06:06:33;101420.38;;;0.48;68.95
12868;BME280;33517;49.866;8.320;2023-03-01T06:09:27;101427.94;;;0.53;68.76
12868;BME280;33517;49.866;8.320;2023-03-01T06:12:19;101428.69;;;0.55;69.05
12868;BME280;33517;49.866;8.320;2023-03-01T06:15:15;101430.22;;;0.59;68.68
12868;BME280;33517;49.866;8.320;2023-03-01T06:18:08;101427.47;;;0.62;68.69
12868;BME280;33517;49.866;8.320;2023-03-01T06:20:59;101431.19;;;0.73;68.18
12868;BME280;33517;49.866;8.320;2023-03-01T06:23:51;101432.63;;;0.79;67.98
12868;BME280;33517;49.866;8.320;2023-03-01T06:26:43;101437.22;;;0.74;68.29
12868;BME280;33517;49.866;8.320;2023-03-01T06:29:35;101432.53;;;0.80;68.33
12868;BME280;33517;49.866;8.320;2023-03-01T06:32:28;101430.09;;;0.94;68.67
12868;BME280;33517;49.866;8.320;2023-03-01T06:35:20;101421.59;;;1.08;67.67
12868;BME280;33517;49.866;8.320;2023-03-01T06:38:12;101416.03;;;1.16;67.32
12868;BME280;33517;49.866;8.320;2023-03-01T06:41:05;101419.91;;;1.24;67.14
12868;BME280;33517;49.866;8.320;2023-03-01T06:43:57;101418.41;;;1.36;66.54
12868;BME280;33517;49.866;8.320;2023-03-01T06:46:49;101421.81;;;1.36;67.04
12868;BME280;33517;49.866;8.320;2023-03-01T06:49:42;101419.06;;;1.39;66.72
12868;BME280;33517;49.866;8.320;2023-03-01T06:52:34;101419.06;;;1.39;66.66
12868;BME280;33517;49.866;8.320;2023-03-01T06:55:26;101423.59;;;1.51;66.60
12868;BME280;33517;49.866;8.320;2023-03-01T06:58:18;101419.56;;;1.61;65.86
12868;BME280;33517;49.866;8.320;2023-03-01T07:01:10;101416.41;;;1.72;65.92
12868;BME280;33517;49.866;8.320;2023-03-01T07:04:02;101422.25;;;1.91;65.25
12868;BME280;33517;49.866;8.320;2023-03-01T07:06:55;101424.75;;;2.08;65.27
12868;BME280;33517;49.866;8.320;2023-03-01T07:09:48;101422.69;;;2.29;64.59
12868;BME280;33517;49.866;8.320;2023-03-01T07:12:40;101409.63;;;2.88;63.68
12868;BME280;33517;49.866;8.320;2023-03-01T07:15:32;101410.78;;;3.67;61.75
12868;BME280;33517;49.866;8.320;2023-03-01T07:18:24;101404.88;;;4.43;59.83
12868;BME280;33517;49.866;8.320;2023-03-01T07:21:16;101402.22;;;4.95;57.29
12868;BME280;33517;49.866;8.320;2023-03-01T07:24:09;101393.56;;;5.56;56.20
12868;BME280;33517;49.866;8.320;2023-03-01T07:27:02;101400.25;;;6.07;54.97
12868;BME280;33517;49.866;8.320;2023-03-01T07:29:54;101394.66;;;6.35;53.75
12868;BME280;33517;49.866;8.320;2023-03-01T07:32:46;101393.25;;;6.99;52.56
12868;BME280;33517;49.866;8.320;2023-03-01T07:35:38;101389.19;;;7.62;51.79
12868;BME280;33517;49.866;8.320;2023-03-01T07:38:30;101391.34;;;7.99;50.61
12868;BME280;33517;49.866;8.320;2023-03-01T07:41:24;101380.41;;;8.26;49.82
12868;BME280;33517;49.866;8.320;2023-03-01T07:44:15;101387.00;;;8.09;48.33
12868;BME280;33517;49.866;8.320;2023-03-01T07:47:07;101389.16;;;8.04;48.60
12868;BME280;33517;49.866;8.320;2023-03-01T07:49:59;101391.75;;;8.47;47.69
12868;BME280;33517;49.866;8.320;2023-03-01T07:52:53;101388.47;;;9.05;47.44
12868;BME280;33517;49.866;8.320;2023-03-01T07:55:44;101376.13;;;9.76;46.23
12868;BME280;33517;49.866;8.320;2023-03-01T07:58:39;101375.59;;;10.20;44.54
12868;BME280;33517;49.866;8.320;2023-03-01T08:01:31;101378.75;;;9.76;45.84
12868;BME280;33517;49.866;8.320;2023-03-01T08:04:24;101382.13;;;9.48;45.36
12868;BME280;33517;49.866;8.320;2023-03-01T08:07:17;101381.06;;;9.60;45.44
12868;BME280;33517;49.866;8.320;2023-03-01T08:10:10;101387.13;;;10.19;44.17
12868;BME280;33517;49.866;8.320;2023-03-01T08:13:02;101383.91;;;10.54;43.17
12868;BME280;33517;49.866;8.320;2023-03-01T08:16:00;101380.59;;;11.35;42.37
12868;BME280;33517;49.866;8.320;2023-03-01T08:18:52;101382.38;;;12.06;40.83
12868;BME280;33517;49.866;8.320;2023-03-01T08:21:46;101379.38;;;12.19;40.26
12868;BME280;33517;49.866;8.320;2023-03-01T08:24:38;101373.25;;;12.36;40.21
12868;BME280;33517;49.866;8.320;2023-03-01T08:27:30;101374.34;;;12.51;39.93
12868;BME280;33517;49.866;8.320;2023-03-01T08:30:22;101372.28;;;12.88;38.22
12868;BME280;33517;49.866;8.320;2023-03-01T08:33:16;101377.03;;;13.36;37.41
12868;BME280;33517;49.866;8.320;2023-03-01T08:36:08;101372.19;;;13.81;36.87
12868;BME280;33517;49.866;8.320;2023-03-01T08:39:00;101370.56;;;14.76;35.58
12868;BME280;33517;49.866;8.320;2023-03-01T08:41:52;101369.59;;;14.69;35.68
12868;BME280;33517;49.866;8.320;2023-03-01T08:44:44;101368.78;;;15.16;35.52
12868;BME280;33517;49.866;8.320;2023-03-01T08:47:36;101367.16;;;16.29;34.09
12868;BME280;33517;49.866;8.320;2023-03-01T08:50:29;101364.44;;;16.75;33.24
12868;BME280;33517;49.866;8.320;2023-03-01T08:53:21;101341.16;;;18.89;30.73
12868;BME280;33517;49.866;8.320;2023-03-01T08:56:13;101349.66;;;20.66;28.73
12868;BME280;33517;49.866;8.320;2023-03-01T08:59:06;101341.56;;;20.98;27.25
12868;BME280;33517;49.866;8.320;2023-03-01T09:01:58;101344.84;;;21.20;26.57
12868;BME280;33517;49.866;8.320;2023-03-01T09:04:50;101340.56;;;21.57;26.57
12868;BME280;33517;49.866;8.320;2023-03-01T09:07:44;101341.31;;;22.02;26.07
12868;BME280;33517;49.866;8.320;2023-03-01T09:10:37;101332.59;;;22.37;26.01
12868;BME280;33517;49.866;8.320;2023-03-01T09:13:30;101340.97;;;22.23;25.40
12868;BME280;33517;49.866;8.320;2023-03-01T09:16:23;101328.13;;;22.31;25.18
12868;BME280;33517;49.866;8.320;2023-03-01T09:19:15;101324.25;;;22.45;24.24
12868;BME280;33517;49.866;8.320;2023-03-01T09:22:07;101329.50;;;21.78;25.20
12868;BME280;33517;49.866;8.320;2023-03-01T09:25:00;101326.84;;;21.78;24.92
12868;BME280;33517;49.866;8.320;2023-03-01T09:27:52;101321.66;;;22.14;24.97
12868;BME280;33517;49.866;8.320;2023-03-01T09:30:44;101322.34;;;21.28;24.58
12868;BME280;33517;49.866;8.320;2023-03-01T09:33:36;101317.72;;;20.90;25.87
12868;BME280;33517;49.866;8.320;2023-03-01T09:36:28;101316.53;;;20.08;25.51
12868;BME280;33517;49.866;8.320;2023-03-01T09:39:20;101305.84;;;20.14;26.54
12868;BME280;33517;49.866;8.320;2023-03-01T09:42:14;101311.78;;;19.71;26.39
12868;BME280;33517;49.866;8.320;2023-03-01T09:45:11;101304.75;;;19.50;26.26
12868;BME280;33517;49.866;8.320;2023-03-01T09:48:12;101298.91;;;19.34;26.25
12868;BME280;33517;49.866;8.320;2023-03-01T09:51:14;101300.09;;;20.11;26.15
12868;BME280;33517;49.866;8.320;2023-03-01T09:54:09;101293.41;;;20.98;26.20
12868;BME280;33517;49.866;8.320;2023-03-01T09:57:13;101290.94;;;21.03;25.47
12868;BME280;33517;49.866;8.320;2023-03-01T10:00:32;101289.09;;;20.97;25.24
12868;BME280;33517;49.866;8.320;2023-03-01T10:03:27;101287.72;;;21.33;25.64
12868;BME280;33517;49.866;8.320;2023-03-01T10:06:21;101293.03;;;21.83;24.99
12868;BME280;33517;49.866;8.320;2023-03-01T10:09:16;101284.56;;;21.49;24.63
12868;BME280;33517;49.866;8.320;2023-03-01T10:12:10;101283.38;;;21.69;24.81
12868;BME280;33517;49.866;8.320;2023-03-01T10:15:06;101280.41;;;21.84;24.58
12868;BME280;33517;49.866;8.320;2023-03-01T10:18:04;101267.66;;;21.79;24.57
12868;BME280;33517;49.866;8.320;2023-03-01T10:20:59;101271.59;;;21.83;24.62
12868;BME280;33517;49.866;8.320;2023-03-01T10:23:52;101266.22;;;21.77;24.95
12868;BME280;33517;49.866;8.320;2023-03-01T10:26:50;101261.06;;;22.49;23.98
12868;BME280;33517;49.866;8.320;2023-03-01T10:29:49;101259.06;;;22.45;24.07
12868;BME280;33517;49.866;8.320;2023-03-01T10:32:42;101262.91;;;22.92;24.25
12868;BME280;33517;49.866;8.320;2023-03-01T10:35:36;101256.16;;;22.46;23.57
12868;BME280;33517;49.866;8.320;2023-03-01T10:38:31;101252.88;;;22.02;24.16
12868;BME280;33517;49.866;8.320;2023-03-01T10:41:24;101235.44;;;22.35;23.82
12868;BME280;33517;49.866;8.320;2023-03-01T10:44:39;101237.59;;;22.02;23.54
12868;BME280;33517;49.866;8.320;2023-03-01T10:47:32;101237.75;;;21.82;24.06
12868;BME280;33517;49.866;8.320;2023-03-01T10:50:24;101231.00;;;22.05;23.60
12868;BME280;33517;49.866;8.320;2023-03-01T10:53:23;101240.03;;;20.59;24.31
12868;BME280;33517;49.866;8.320;2023-03-01T10:56:17;101234.03;;;21.21;24.22
12868;BME280;33517;49.866;8.320;2023-03-01T10:59:21;101224.72;;;22.11;23.35
12868;BME280;33517;49.866;8.320;2023-03-01T11:02:16;101220.69;;;22.02;23.87
12868;BME280;33517;49.866;8.320;2023-03-01T11:05:17;101211.16;;;21.87;23.96
12868;BME280;33517;49.866;8.320;2023-03-01T11:08:10;101212.50;;;21.96;23.21
12868;BME280;33517;49.866;8.320;2023-03-01T11:11:21;101207.75;;;21.43;23.73
12868;BME280;33517;49.866;8.320;2023-03-01T11:14:16;101201.56;;;20.98;24.12
12868;BME280;33517;49.866;8.320;2023-03-01T11:17:15;101204.22;;;21.42;24.08
12868;BME280;33517;49.866;8.320;2023-03-01T11:20:17;101197.28;;;20.90;24.36
12868;BME280;33517;49.866;8.320;2023-03-01T11:23:13;101199.94;;;21.41;24.25
12868;BME280;33517;49.866;8.320;2023-03-01T11:26:08;101197.56;;;21.51;24.29
12868;BME280;33517;49.866;8.320;2023-03-01T11:29:04;101190.09;;;21.60;24.19
12868;BME280;33517;49.866;8.320;2023-03-01T11:32:01;101184.25;;;21.69;24.00
12868;BME280;33517;49.866;8.320;2023-03-01T11:34:57;101173.97;;;22.16;23.53
12868;BME280;33517;49.866;8.320;2023-03-01T11:38:02;101165.63;;;22.24;23.83
12868;BME280;33517;49.866;8.320;2023-03-01T11:41:00;101158.94;;;22.33;23.37
12868;BME280;33517;49.866;8.320;2023-03-01T11:43:59;101159.53;;;22.35;23.50
12868;BME280;33517;49.866;8.320;2023-03-01T11:47:11;101150.78;;;21.78;23.06
12868;BME280;33517;49.866;8.320;2023-03-01T11:50:21;101154.69;;;21.82;23.92
12868;BME280;33517;49.866;8.320;2023-03-01T11:53:36;101143.63;;;22.15;23.81
12868;BME280;33517;49.866;8.320;2023-03-01T11:56:36;101140.38;;;22.31;23.57
12868;BME280;33517;49.866;8.320;2023-03-01T12:03:39;101132.47;;;22.18;23.38
12868;BME280;33517;49.866;8.320;2023-03-01T12:06:42;101133.50;;;22.17;23.53
12868;BME280;33517;49.866;8.320;2023-03-01T12:09:57;101119.44;;;22.58;23.66
12868;BME280;33517;49.866;8.320;2023-03-01T12:13:24;101118.63;;;22.87;22.86
12868;BME280;33517;49.866;8.320;2023-03-01T12:16:27;101113.66;;;21.57;23.31
12868;BME280;33517;49.866;8.320;2023-03-01T12:19:33;101109.97;;;22.19;23.64
12868;BME280;33517;49.866;8.320;2023-03-01T12:22:31;101109.91;;;22.26;22.92
12868;BME280;33517;49.866;8.320;2023-03-01T12:25:28;101115.34;;;22.37;23.22
12868;BME280;33517;49.866;8.320;2023-03-01T12:28:44;101101.97;;;22.67;23.17
12868;BME280;33517;49.866;8.320;2023-03-01T12:32:03;101094.09;;;21.99;22.73
12868;BME280;33517;49.866;8.320;2023-03-01T12:38:32;101074.00;;;21.90;23.29
12868;BME280;33517;49.866;8.320;2023-03-01T12:41:45;101064.47;;;22.13;23.64
12868;BME280;33517;49.866;8.320;2023-03-01T12:45:04;101062.25;;;21.67;22.96
12868;BME280;33517;49.866;8.320;2023-03-01T12:48:18;101050.13;;;21.22;23.85
12868;BME280;33517;49.866;8.320;2023-03-01T12:51:15;101038.47;;;21.34;23.52
12868;BME280;33517;49.866;8.320;2023-03-01T12:54:15;101039.34;;;21.03;23.96
12868;BME280;33517;49.866;8.320;2023-03-01T12:57:14;101032.22;;;21.22;23.76
12868;BME280;33517;49.866;8.320;2023-03-01T13:00:21;101017.56;;;21.25;23.94
12868;BME280;33517;49.866;8.320;2023-03-01T13:03:26;101022.44;;;21.70;23.58
12868;BME280;33517;49.866;8.320;2023-03-01T13:06:26;101022.81;;;21.38;23.62
12868;BME280;33517;49.866;8.320;2023-03-01T13:09:27;101019.03;;;21.63;23.80
12868;BME280;33517;49.866;8.320;2023-03-01T13:12:50;101014.41;;;21.70;23.23
12868;BME280;33517;49.866;8.320;2023-03-01T13:15:42;101008.63;;;21.13;23.73
12868;BME280;33517;49.866;8.320;2023-03-01T13:18:35;101013.34;;;20.86;24.03
12868;BME280;33517;49.866;8.320;2023-03-01T13:21:30;100996.75;;;21.02;23.83
12868;BME280;33517;49.866;8.320;2023-03-01T13:24:27;100994.59;;;21.53;23.54
12868;BME280;33517;49.866;8.320;2023-03-01T13:27:22;100999.88;;;21.84;23.11
12868;BME280;33517;49.866;8.320;2023-03-01T13:30:38;100988.63;;;21.76;23.31
12868;BME280;33517;49.866;8.320;2023-03-01T13:33:42;100981.00;;;21.37;23.56
12868;BME280;33517;49.866;8.320;2023-03-01T13:36:48;100963.34;;;21.29;23.84
12868;BME280;33517;49.866;8.320;2023-03-01T13:39:40;100978.56;;;21.11;23.14
12868;BME280;33517;49.866;8.320;2023-03-01T13:42:41;100970.50;;;21.35;23.58
12868;BME280;33517;49.866;8.320;2023-03-01T13:45:38;100968.94;;;21.28;23.09
12868;BME280;33517;49.866;8.320;2023-03-01T13:48:31;100969.25;;;20.64;23.35
12868;BME280;33517;49.866;8.320;2023-03-01T13:51:27;100978.59;;;20.10;23.43
12868;BME280;33517;49.866;8.320;2023-03-01T13:54:25;100964.25;;;20.43;23.73
12868;BME280;33517;49.866;8.320;2023-03-01T13:57:20;100953.59;;;20.36;23.74
12868;BME280;33517;49.866;8.320;2023-03-01T14:00:35;100957.97;;;20.17;23.97
12868;BME280;33517;49.866;8.320;2023-03-01T14:03:28;100958.22;;;20.23;23.78
12868;BME280;33517;49.866;8.320;2023-03-01T14:06:22;100958.28;;;19.39;24.21
12868;BME280;33517;49.866;8.320;2023-03-01T14:09:18;100954.97;;;19.57;24.25
12868;BME280;33517;49.866;8.320;2023-03-01T14:12:21;100958.72;;;19.03;23.83
12868;BME280;33517;49.866;8.320;2023-03-01T14:15:19;100959.13;;;19.26;24.72
12868;BME280;33517;49.866;8.320;2023-03-01T14:18:19;100956.69;;;18.99;24.61
12868;BME280;33517;49.866;8.320;2023-03-01T14:21:15;100951.97;;;18.75;24.84
12868;BME280;33517;49.866;8.320;2023-03-01T14:24:18;100954.63;;;18.55;24.87
12868;BME280;33517;49.866;8.320;2023-03-01T14:27:12;100961.03;;;18.00;25.60
12868;BME280;33517;49.866;8.320;2023-03-01T14:30:12;100956.13;;;18.04;26.13
12868;BME280;33517;49.866;8.320;2023-03-01T14:33:18;100946.91;;;17.25;26.11
12868;BME280;33517;49.866;8.320;2023-03-01T14:36:13;100953.97;;;15.70;26.99
12868;BME280;33517;49.866;8.320;2023-03-01T14:39:18;100952.72;;;14.09;28.95
12868;BME280;33517;49.866;8.320;2023-03-01T14:42:11;100946.00;;;12.89;30.68
12868;BME280;33517;49.866;8.320;2023-03-01T14:45:07;100953.69;;;12.02;32.52
12868;BME280;33517;49.866;8.320;2023-03-01T14:48:00;100958.09;;;11.52;32.81
12868;BME280;33517;49.866;8.320;2023-03-01T14:50:53;100947.53;;;11.18;33.46
12868;BME280;33517;49.866;8.320;2023-03-01T14:53:45;100943.31;;;10.99;33.63
12868;BME280;33517;49.866;8.320;2023-03-01T14:56:44;100944.25;;;10.73;34.42
12868;BME280;33517;49.866;8.320;2023-03-01T14:59:37;100941.72;;;10.46;35.24
12868;BME280;33517;49.866;8.320;2023-03-01T15:02:29;100940.94;;;10.28;35.74
12868;BME280;33517;49.866;8.320;2023-03-01T15:05:25;100933.09;;;10.18;36.27
12868;BME280;33517;49.866;8.320;2023-03-01T15:08:21;100944.78;;;10.06;36.05
12868;BME280;33517;49.866;8.320;2023-03-01T15:11:21;100938.28;;;9.83;36.74
12868;BME280;33517;49.866;8.320;2023-03-01T15:14:43;100937.13;;;9.68;37.38
12868;BME280;33517;49.866;8.320;2023-03-01T15:17:39;100931.06;;;9.58;37.83
12868;BME280;33517;49.866;8.320;2023-03-01T15:20:33;100929.03;;;9.52;37.56
12868;BME280;33517;49.866;8.320;2023-03-01T15:23:29;100930.22;;;9.40;37.99
12868;BME280;33517;49.866;8.320;2023-03-01T15:26:28;100927.47;;;9.32;37.78
12868;BME280;33517;49.866;8.320;2023-03-01T15:29:23;100928.56;;;9.29;37.70
12868;BME280;33517;49.866;8.320;2023-03-01T15:32:27;100935.66;;;9.19;38.67